Time;durP1;ratioP1;P1;durP2;ratioP2;P2;SDS_P1;SDS_P2;PMS_P1;PMS_P2;Temp;Humidity;BMP_temperature;BMP_pressure;BME280_temperature;BME280_humidity;BME280_pressure;Samples;Min_cycle;Max_cycle;Signal;HPM_P1;HPM_P2
2022/11/19 00:01:14;;;;;;;17.40;9.60;;;;;;;5.43;100.00;100850.97;5013226;28;20498;-68
2022/11/19 00:03:42;;;;;;;16.55;9.85;;;;;;;5.41;100.00;100854.63;5023214;28;20054;-69
2022/11/19 00:06:11;;;;;;;16.20;9.98;;;;;;;5.32;100.00;100856.94;5017164;28;20052;-68
2022/11/19 00:08:38;;;;;;;19.10;10.75;;;;;;;5.27;100.00;100848.66;5014725;28;20078;-68
2022/11/19 00:11:06;;;;;;;17.05;10.07;;;;;;;5.32;100.00;100858.72;5021866;28;20632;-68
2022/11/19 00:13:36;;;;;;;14.85;10.13;;;;;;;5.32;100.00;100862.16;5015346;28;20066;-68
2022/11/19 00:16:13;;;;;;;17.13;10.98;;;;;;;5.34;100.00;100856.84;5020993;28;21028;-69
2022/11/19 00:18:40;;;;;;;15.93;10.23;;;;;;;5.28;100.00;100859.91;5019578;28;20496;-69
2022/11/19 00:21:12;;;;;;;16.05;10.68;;;;;;;5.28;100.00;100858.13;5024706;28;20072;-68
2022/11/19 00:23:39;;;;;;;18.75;11.32;;;;;;;5.30;100.00;100868.41;4982797;28;20510;-69
2022/11/19 00:26:08;;;;;;;17.95;10.50;;;;;;;5.27;100.00;100864.28;5000127;28;20746;-69
2022/11/19 00:28:35;;;;;;;18.20;11.52;;;;;;;5.21;100.00;100875.09;5011196;28;20388;-68
2022/11/19 00:31:04;;;;;;;18.40;10.60;;;;;;;5.19;100.00;100874.38;5018589;28;20072;-68
2022/11/19 00:33:30;;;;;;;18.50;11.27;;;;;;;5.16;100.00;100869.41;5025520;28;20055;-68
2022/11/19 00:35:58;;;;;;;17.38;10.48;;;;;;;5.17;100.00;100868.44;5016756;28;20097;-69
2022/11/19 00:38:26;;;;;;;19.13;11.20;;;;;;;5.14;100.00;100868.69;5023207;28;20049;-70
2022/11/19 00:40:52;;;;;;;15.23;9.80;;;;;;;5.15;100.00;100870.34;5007345;28;20531;-69
2022/11/19 00:46:04;;;;;;;19.65;10.52;;;;;;;5.14;100.00;100868.69;5019160;28;20053;-68
2022/11/19 00:48:31;;;;;;;15.95;9.82;;;;;;;5.09;100.00;100876.81;5022730;28;20053;-69
2022/11/19 00:50:57;;;;;;;18.55;10.85;;;;;;;5.12;100.00;100875.78;5021995;28;20049;-69
2022/11/19 00:53:24;;;;;;;17.80;11.80;;;;;;;5.14;100.00;100881.69;5017878;28;20053;-69
2022/11/19 00:55:50;;;;;;;16.92;11.05;;;;;;;5.09;100.00;100884.59;5008477;28;20064;-69
2022/11/19 00:58:18;;;;;;;16.38;10.48;;;;;;;5.09;100.00;100887.19;5018336;28;20054;-69
2022/11/19 01:00:45;;;;;;;16.95;10.85;;;;;;;5.06;100.00;100890.03;5013973;28;20081;-69
2022/11/19 01:03:12;;;;;;;18.70;10.85;;;;;;;5.14;100.00;100894.69;5021836;28;20056;-69
2022/11/19 01:05:38;;;;;;;17.55;10.80;;;;;;;5.10;100.00;100888.88;5018018;28;20054;-69
2022/11/19 01:08:04;;;;;;;16.48;10.85;;;;;;;5.06;100.00;100887.44;5030653;28;20626;-69
2022/11/19 01:10:33;;;;;;;15.55;10.02;;;;;;;5.06;100.00;100889.22;5017093;28;20068;-69
2022/11/19 01:15:49;;;;;;;18.38;10.30;;;;;;;5.09;100.00;100895.00;5019883;28;20188;-69
2022/11/19 01:18:16;;;;;;;15.77;9.55;;;;;;;5.06;100.00;100897.00;5019487;28;20061;-69
2022/11/19 01:20:44;;;;;;;16.42;10.27;;;;;;;5.05;100.00;100905.75;5001225;28;20614;-70
2022/11/19 01:23:10;;;;;;;17.88;10.68;;;;;;;5.02;100.00;100905.94;4996295;28;20421;-68
2022/11/19 01:25:37;;;;;;;16.80;10.82;;;;;;;5.02;100.00;100917.19;5019236;28;20057;-69
2022/11/19 01:28:04;;;;;;;16.95;11.38;;;;;;;4.95;100.00;100913.34;5013592;28;20072;-69
2022/11/19 01:30:31;;;;;;;20.92;12.35;;;;;;;4.88;100.00;100912.97;5029782;28;20064;-68
2022/11/19 01:32:57;;;;;;;16.23;11.18;;;;;;;4.88;100.00;100915.56;5015293;28;20486;-69
2022/11/19 01:35:24;;;;;;;18.38;11.40;;;;;;;4.85;100.00;100922.75;5020466;28;20061;-69
2022/11/19 01:37:51;;;;;;;19.25;11.88;;;;;;;4.85;100.00;100922.75;5020418;28;20057;-69
2022/11/19 01:40:18;;;;;;;20.17;11.93;;;;;;;4.79;100.00;100917.97;5017789;28;20049;-69
2022/11/19 01:42:50;;;;;;;18.05;11.10;;;;;;;4.80;100.00;100920.44;5018816;28;20045;-69
2022/11/19 01:45:38;;;;;;;18.88;12.10;;;;;;;4.81;100.00;100923.91;4998015;28;20049;-70
2022/11/19 01:48:16;;;;;;;20.33;12.32;;;;;;;4.69;100.00;100915.19;4998706;28;20422;-69
2022/11/19 01:50:48;;;;;;;18.77;12.48;;;;;;;4.67;100.00;100922.25;5016390;28;20057;-69
2022/11/19 01:53:15;;;;;;;18.27;12.75;;;;;;;4.68;100.00;100929.09;5022085;28;20156;-69
2022/11/19 01:55:43;;;;;;;18.85;12.00;;;;;;;4.71;100.00;100931.50;5025797;28;20084;-69
2022/11/19 01:58:12;;;;;;;16.23;10.73;;;;;;;4.73;100.00;100933.03;5007607;28;20062;-69
2022/11/19 02:00:38;;;;;;;19.42;12.55;;;;;;;4.60;100.00;100942.59;5014876;28;20123;-69
2022/11/19 02:03:05;;;;;;;21.83;13.23;;;;;;;4.56;100.00;100935.97;5007679;28;20053;-69
2022/11/19 02:05:32;;;;;;;20.17;12.55;;;;;;;4.58;100.00;100947.09;5009431;28;20470;-69
2022/11/19 02:07:59;;;;;;;19.70;12.38;;;;;;;4.56;100.00;100949.78;5014319;28;20045;-68
2022/11/19 02:11:02;;;;;;;19.13;12.75;;;;;;;4.65;100.00;100950.94;5019394;28;20115;-68
2022/11/19 02:13:35;;;;;;;21.63;13.45;;;;;;;4.59;100.00;100946.16;5005638;28;20053;-69
2022/11/19 02:16:21;;;;;;;21.48;13.35;;;;;;;4.47;100.00;100952.16;5006583;28;20052;-69
2022/11/19 02:18:47;;;;;;;20.75;13.25;;;;;;;4.41;100.00;100955.19;5009202;28;20871;-68
2022/11/19 02:21:20;;;;;;;22.00;13.60;;;;;;;4.50;100.00;100960.59;5002558;28;20053;-70
2022/11/19 02:23:59;;;;;;;20.02;12.63;;;;;;;4.41;100.00;100956.03;5009978;28;20086;-69
2022/11/19 02:26:47;;;;;;;22.15;14.23;;;;;;;4.45;100.00;100960.09;4996141;28;20049;-69
2022/11/19 02:29:29;;;;;;;21.88;14.27;;;;;;;4.52;100.00;100960.50;5012399;28;20051;-69
2022/11/19 02:32:04;;;;;;;21.20;13.88;;;;;;;4.48;100.00;100964.22;5000668;28;20326;-68
2022/11/19 02:34:39;;;;;;;22.10;14.07;;;;;;;4.46;100.00;100963.50;5009306;28;20493;-70
2022/11/19 02:37:21;;;;;;;24.15;13.82;;;;;;;4.51;100.00;100959.66;5011962;28;20053;-69
2022/11/19 02:39:59;;;;;;;22.30;14.80;;;;;;;4.47;100.00;100962.56;5014806;28;20129;-68
2022/11/19 02:42:31;;;;;;;23.27;14.27;;;;;;;4.36;100.00;100964.13;5008271;28;20076;-69
2022/11/19 02:45:23;;;;;;;24.30;16.40;;;;;;;4.33;100.00;100963.47;5000574;28;20407;-69
2022/11/19 02:47:54;;;;;;;22.48;14.02;;;;;;;4.32;100.00;100970.44;5004656;28;20054;-68
2022/11/19 02:50:45;;;;;;;24.50;15.30;;;;;;;4.30;100.00;100963.72;4997052;28;20056;-69
2022/11/19 02:53:11;;;;;;;21.75;14.18;;;;;;;4.20;100.00;100968.69;4989141;28;20425;-69
2022/11/19 02:55:39;;;;;;;24.65;15.52;;;;;;;4.15;100.00;100963.75;5001887;28;20052;-68
2022/11/19 03:04:28;;;;;;;24.85;16.65;;;;;;;4.27;100.00;100963.91;5009275;28;20074;-69
2022/11/19 03:06:37;;;;;;;24.83;16.25;;;;;;;4.24;100.00;100964.13;5001249;28;20689;-68
2022/11/19 03:09:03;;;;;;;25.20;15.60;;;;;;;4.16;100.00;100968.03;5013649;28;20058;-68
2022/11/19 03:11:31;;;;;;;27.58;17.10;;;;;;;4.15;100.00;100968.97;4991568;28;20138;-69
2022/11/19 03:17:15;;;;;;;20.70;13.77;;;;;;;4.15;100.00;100957.75;5006756;28;20099;-68
2022/11/19 03:19:44;;;;;;;27.17;17.23;;;;;;;4.19;100.00;100963.56;5003394;28;20048;-69
2022/11/19 03:22:19;;;;;;;24.88;14.98;;;;;;;4.16;100.00;100967.22;5014156;28;20049;-69
2022/11/19 03:25:10;;;;;;;26.05;16.65;;;;;;;4.10;100.00;100958.06;5009566;28;20061;-69
2022/11/19 03:27:41;;;;;;;24.60;16.33;;;;;;;4.13;100.00;100967.41;5001306;28;20826;-69
2022/11/19 03:30:08;;;;;;;24.67;16.38;;;;;;;4.06;100.00;100974.78;5007066;28;20049;-69
2022/11/19 03:32:50;;;;;;;22.93;15.40;;;;;;;4.07;100.00;100978.19;5005837;28;20050;-69
2022/11/19 03:35:21;;;;;;;25.85;15.65;;;;;;;4.10;100.00;100978.84;5030421;28;20584;-68
2022/11/19 03:37:53;;;;;;;24.48;16.08;;;;;;;4.11;100.00;100987.44;5014035;28;20076;-68
2022/11/19 03:40:20;;;;;;;26.20;17.05;;;;;;;4.01;100.00;100976.00;5016066;28;20049;-68
2022/11/19 03:42:51;;;;;;;24.20;16.27;;;;;;;4.02;100.00;100990.63;5010820;28;20056;-68
2022/11/19 03:45:24;;;;;;;23.90;16.23;;;;;;;4.00;100.00;100985.56;5017308;28;20139;-68
2022/11/19 03:47:54;;;;;;;23.63;16.15;;;;;;;4.00;100.00;100982.97;5005080;28;20064;-68
2022/11/19 03:50:28;;;;;;;27.48;18.00;;;;;;;4.02;100.00;100985.44;5020618;28;20065;-68
2022/11/19 03:52:56;;;;;;;29.67;18.50;;;;;;;4.05;100.00;100987.84;5007084;28;20068;-68
2022/11/19 03:56:01;;;;;;;26.27;17.15;;;;;;;4.01;100.00;100978.59;5012588;28;20058;-68
2022/11/19 03:58:28;;;;;;;;;;;;;;;4.02;100.00;100986.31;5013836;28;20251;-69
2022/11/19 04:00:55;;;;;;;28.02;16.80;;;;;;;3.91;100.00;100989.56;4993752;28;19936;-68
2022/11/19 04:03:21;;;;;;;26.98;16.90;;;;;;;3.90;100.00;100995.72;5021519;28;20100;-68
2022/11/19 04:05:48;;;;;;;24.83;16.17;;;;;;;3.87;100.00;100998.50;5012308;28;20050;-68
2022/11/19 04:08:14;;;;;;;27.98;16.90;;;;;;;3.87;100.00;101003.69;5024805;28;20057;-68
2022/11/19 04:10:40;;;;;;;25.35;16.73;;;;;;;3.78;100.00;100998.25;5002283;28;20042;-68
2022/11/19 04:13:07;;;;;;;28.15;17.65;;;;;;;3.72;100.00;100996.88;5015859;28;20748;-69
2022/11/19 04:15:33;;;;;;;24.52;16.05;;;;;;;3.74;100.00;100995.88;5017415;28;20049;-68
2022/11/19 04:17:59;;;;;;;25.08;15.73;;;;;;;3.69;100.00;100997.09;5023609;28;20426;-68
2022/11/19 04:20:26;;;;;;;26.38;16.95;;;;;;;3.66;100.00;101011.06;5024336;28;20049;-69
2022/11/19 04:22:52;;;;;;;29.20;17.75;;;;;;;3.60;100.00;101001.06;5012788;28;20130;-68
2022/11/19 04:25:19;;;;;;;26.65;17.45;;;;;;;3.61;100.00;101010.53;5008844;28;20068;-69
2022/11/19 04:27:45;;;;;;;25.27;15.88;;;;;;;3.58;100.00;101012.50;5031340;28;20581;-69
2022/11/19 04:30:13;;;;;;;25.42;15.98;;;;;;;3.64;100.00;101010.34;5014515;28;20136;-69
2022/11/19 04:32:40;;;;;;;27.73;16.75;;;;;;;3.61;100.00;101020.06;5024824;28;20132;-69
2022/11/19 04:35:06;;;;;;;24.33;15.75;;;;;;;3.62;100.00;101016.56;5001447;28;20072;-69
2022/11/19 04:37:33;;;;;;;27.08;17.02;;;;;;;3.58;100.00;101020.28;5021628;28;20103;-68
2022/11/19 04:39:59;;;;;;;28.60;17.23;;;;;;;3.53;100.00;101031.78;5015199;28;20064;-68
2022/11/19 04:42:26;;;;;;;25.80;16.58;;;;;;;3.54;100.00;101038.59;5006431;28;20136;-69
2022/11/19 04:44:53;;;;;;;28.27;16.40;;;;;;;3.58;100.00;101031.47;5017565;28;20050;-69
2022/11/19 04:47:19;;;;;;;26.20;16.13;;;;;;;3.62;100.00;101039.91;5009506;28;20045;-69
2022/11/19 04:49:45;;;;;;;26.77;16.50;;;;;;;3.63;100.00;101042.41;5027160;28;20563;-68
2022/11/19 04:52:12;;;;;;;27.75;17.10;;;;;;;3.68;100.00;101039.50;4990909;28;20417;-68
2022/11/19 04:54:39;;;;;;;23.70;14.50;;;;;;;3.68;100.00;101040.34;5013306;28;20925;-68
2022/11/19 04:57:05;;;;;;;27.88;16.33;;;;;;;3.70;100.00;101043.66;5022082;28;20519;-69
2022/11/19 04:59:32;;;;;;;25.35;16.40;;;;;;;3.69;100.00;101043.78;5012319;28;20468;-68
2022/11/19 05:01:58;;;;;;;28.92;17.15;;;;;;;3.65;100.00;101042.31;5005291;28;20053;-68
2022/11/19 05:04:25;;;;;;;25.75;16.98;;;;;;;3.62;100.00;101051.09;5017872;28;20053;-69
2022/11/19 05:06:51;;;;;;;30.42;18.42;;;;;;;3.54;100.00;101051.56;5014684;28;20202;-69
2022/11/19 05:09:17;;;;;;;29.33;17.13;;;;;;;3.48;100.00;101045.94;5014713;28;20139;-70
2022/11/19 05:11:44;;;;;;;29.15;17.88;;;;;;;3.49;100.00;101061.41;5017955;28;20056;-70
2022/11/19 05:14:11;;;;;;;26.95;16.85;;;;;;;3.55;100.00;101057.63;5022142;28;20100;-70
2022/11/19 05:16:37;;;;;;;31.17;19.45;;;;;;;3.47;100.00;101052.06;5017733;28;20053;-70
2022/11/19 05:19:03;;;;;;;28.00;17.30;;;;;;;3.49;100.00;101061.41;5025391;28;20132;-69
2022/11/19 05:21:30;;;;;;;30.55;18.67;;;;;;;3.52;100.00;101052.59;4987952;28;20410;-69
2022/11/19 05:23:56;;;;;;;27.05;17.58;;;;;;;3.49;100.00;101055.38;5014505;28;20056;-70
2022/11/19 05:26:23;;;;;;;27.58;18.20;;;;;;;3.52;100.00;101062.97;5019587;28;20057;-69
2022/11/19 05:28:49;;;;;;;29.13;18.02;;;;;;;3.45;100.00;101057.34;5022863;28;20057;-69
2022/11/19 05:31:15;;;;;;;31.17;18.77;;;;;;;3.41;100.00;101058.47;5029261;28;20046;-69
2022/11/19 05:33:42;;;;;;;27.95;17.85;;;;;;;3.42;100.00;101061.88;4989403;28;20096;-69
2022/11/19 05:36:08;;;;;;;30.40;17.08;;;;;;;3.48;100.00;101069.28;5022012;28;20160;-69
2022/11/19 05:38:36;;;;;;;28.73;18.20;;;;;;;3.44;100.00;101067.81;5021281;28;20053;-69
2022/11/19 05:41:02;;;;;;;27.77;17.05;;;;;;;3.43;100.00;101076.50;5005240;28;20056;-69
2022/11/19 05:43:29;;;;;;;26.05;15.90;;;;;;;3.42;100.00;101080.03;5022671;28;20053;-69
2022/11/19 05:45:58;;;;;;;30.27;18.02;;;;;;;3.42;100.00;101093.00;5016750;28;20057;-70
2022/11/19 05:48:25;;;;;;;26.58;16.58;;;;;;;3.35;100.00;101084.75;5002783;28;20074;-69
2022/11/19 05:50:51;;;;;;;29.30;18.27;;;;;;;3.33;100.00;101084.00;5016616;28;20137;-69
2022/11/19 05:53:17;;;;;;;27.30;16.77;;;;;;;3.28;100.00;101086.06;5026578;28;20083;-70
2022/11/19 05:55:44;;;;;;;28.70;16.98;;;;;;;3.22;100.00;101086.44;5012524;28;20546;-69
2022/11/19 05:58:12;;;;;;;31.05;17.92;;;;;;;3.25;100.00;101078.47;5025238;28;20099;-69
2022/11/19 06:00:39;;;;;;;28.10;17.67;;;;;;;3.28;100.00;101086.06;5010165;28;20494;-69
2022/11/19 06:03:05;;;;;;;32.33;18.05;;;;;;;3.25;100.00;101088.84;5016260;28;20080;-69
2022/11/19 06:05:31;;;;;;;27.80;17.50;;;;;;;3.30;100.00;101095.41;5015963;28;20092;-68
2022/11/19 06:08:05;;;;;;;28.42;16.80;;;;;;;3.25;100.00;101105.22;5014529;28;20489;-69
2022/11/19 06:10:32;;;;;;;26.85;16.88;;;;;;;3.22;100.00;101107.19;5002886;28;20057;-69
2022/11/19 06:12:58;;;;;;;27.30;15.68;;;;;;;3.24;100.00;101106.16;5007406;28;20049;-69
2022/11/19 06:15:24;;;;;;;25.92;17.00;;;;;;;3.23;100.00;101109.66;5022476;28;20147;-69
2022/11/19 06:17:51;;;;;;;29.83;17.58;;;;;;;3.24;100.00;101111.34;5016021;28;20111;-69
2022/11/19 06:20:17;;;;;;;28.27;17.40;;;;;;;3.19;100.00;101118.56;5019070;28;20052;-69
2022/11/19 06:22:44;;;;;;;25.13;17.08;;;;;;;3.12;100.00;101119.84;5023587;28;20541;-69
2022/11/19 06:25:10;;;;;;;25.23;15.32;;;;;;;3.21;100.00;101128.84;5013057;28;20103;-69
2022/11/19 06:27:36;;;;;;;26.05;16.10;;;;;;;3.21;100.00;101137.44;5009356;28;20184;-70
2022/11/19 06:30:04;;;;;;;25.45;16.95;;;;;;;3.19;100.00;101133.28;5015218;28;20052;-69
2022/11/19 06:32:30;;;;;;;26.67;16.77;;;;;;;3.11;100.00;101134.56;5015980;28;20077;-70
2022/11/19 06:34:57;;;;;;;25.70;16.80;;;;;;;3.09;100.00;101146.78;5018213;28;20592;-69
2022/11/19 06:37:23;;;;;;;26.63;16.58;;;;;;;3.04;100.00;101153.16;5013311;28;20053;-69
2022/11/19 06:39:49;;;;;;;27.58;16.90;;;;;;;3.02;100.00;101153.25;5023292;28;20395;-69
2022/11/19 06:45:07;;;;;;;24.95;15.75;;;;;;;2.95;100.00;101157.13;5017005;28;20085;-70
2022/11/19 06:47:33;;;;;;;24.58;15.50;;;;;;;2.93;100.00;101164.97;5016779;28;20065;-70
2022/11/19 06:50:00;;;;;;;27.77;17.02;;;;;;;2.88;100.00;101167.03;5015950;28;20099;-69
2022/11/19 06:52:27;;;;;;;27.58;16.02;;;;;;;2.92;100.00;101149.50;5022750;28;20053;-69
2022/11/19 06:54:53;;;;;;;29.23;16.80;;;;;;;2.90;100.00;101169.50;5012115;28;20088;-70
2022/11/19 06:57:20;;;;;;;27.40;16.63;;;;;;;2.93;100.00;101170.16;4993744;28;20457;-69
2022/11/19 06:59:46;;;;;;;28.90;16.73;;;;;;;2.87;100.00;101173.09;5006306;28;20041;-69
2022/11/19 07:02:13;;;;;;;26.55;15.85;;;;;;;2.77;100.00;101177.16;5015320;28;20049;-70
2022/11/19 07:04:45;;;;;;;29.95;16.88;;;;;;;2.81;100.00;101180.41;5016749;28;20056;-70
2022/11/19 07:07:12;;;;;;;25.23;15.13;;;;;;;2.88;100.00;101179.97;5016963;28;20056;-69
2022/11/19 07:09:38;;;;;;;26.55;15.73;;;;;;;2.87;100.00;101178.28;5011379;28;20045;-70
2022/11/19 07:12:06;;;;;;;27.48;17.00;;;;;;;2.90;100.00;101180.72;5001026;28;20046;-69
2022/11/19 07:14:32;;;;;;;28.98;16.13;;;;;;;2.84;100.00;101175.03;5023676;28;20057;-70
2022/11/19 07:16:59;;;;;;;25.77;15.27;;;;;;;2.77;100.00;101179.75;5013169;28;20064;-70
2022/11/19 07:19:25;;;;;;;23.23;15.43;;;;;;;2.82;100.00;101182.06;5018711;28;20057;-69
2022/11/19 07:21:51;;;;;;;25.15;16.38;;;;;;;2.83;100.00;101189.75;5025052;28;20045;-69
2022/11/19 07:24:18;;;;;;;25.98;15.48;;;;;;;2.82;100.00;101184.66;5012738;28;20049;-70
2022/11/19 07:26:44;;;;;;;28.30;16.58;;;;;;;2.81;100.00;101183.81;5009496;28;20149;-69
2022/11/19 07:29:12;;;;;;;28.45;15.75;;;;;;;2.81;100.00;101191.59;5015093;28;20050;-69
2022/11/19 07:31:39;;;;;;;27.83;17.20;;;;;;;2.74;100.00;101203.22;5025305;28;20409;-69
2022/11/19 07:34:07;;;;;;;22.30;13.93;;;;;;;2.76;100.00;101198.78;5025040;28;20053;-70
2022/11/19 07:36:34;;;;;;;29.77;16.98;;;;;;;2.76;100.00;101201.38;5013505;28;20058;-68
2022/11/19 07:39:01;;;;;;;26.02;15.00;;;;;;;2.76;100.00;101210.00;5020978;28;20049;-68
2022/11/19 07:44:12;;;;;;;27.75;15.95;;;;;;;2.81;100.00;101211.50;5016388;28;20057;-69
2022/11/19 07:46:39;;;;;;;25.77;15.07;;;;;;;2.87;100.00;101222.34;5018565;28;20588;-69
2022/11/19 07:49:06;;;;;;;27.52;16.45;;;;;;;2.80;100.00;101227.94;5026855;28;20048;-68
2022/11/19 07:51:35;;;;;;;27.75;14.98;;;;;;;2.83;100.00;101223.44;5033035;28;20049;-68
2022/11/19 07:54:01;;;;;;;24.70;14.80;;;;;;;2.84;100.00;101227.69;5017523;28;20882;-68
2022/11/19 07:56:28;;;;;;;23.65;14.85;;;;;;;2.74;100.00;101224.81;5018667;28;20053;-69
2022/11/19 07:58:54;;;;;;;27.48;16.17;;;;;;;2.78;100.00;101235.81;5022240;28;20553;-69
2022/11/19 08:01:22;;;;;;;26.05;15.13;;;;;;;2.75;100.00;101231.63;5029444;28;20072;-69
2022/11/19 08:03:50;;;;;;;25.02;15.23;;;;;;;2.72;100.00;101239.56;5019580;28;20045;-68
2022/11/19 08:06:23;;;;;;;25.38;15.32;;;;;;;2.66;100.00;101239.91;5030464;28;20095;-68
2022/11/19 08:08:50;;;;;;;24.70;14.38;;;;;;;2.54;100.00;101241.44;5013006;28;20501;-68
2022/11/19 08:11:17;;;;;;;26.55;14.07;;;;;;;2.50;100.00;101247.69;5028015;28;20497;-68
2022/11/19 08:13:44;;;;;;;22.17;13.27;;;;;;;2.54;100.00;101250.97;5027497;28;20126;-68
2022/11/19 08:16:12;;;;;;;22.70;13.75;;;;;;;2.47;100.00;101254.78;5021697;28;20041;-68
2022/11/19 08:18:38;;;;;;;22.55;13.38;;;;;;;2.47;100.00;101250.47;5027553;28;20054;-69
2022/11/19 08:21:08;;;;;;;22.95;14.05;;;;;;;2.46;100.00;101266.91;5019899;28;20049;-69
2022/11/19 08:23:35;;;;;;;23.63;14.20;;;;;;;2.49;100.00;101268.50;5025908;28;20053;-68
2022/11/19 08:26:03;;;;;;;21.35;13.38;;;;;;;2.49;100.00;101274.53;5024502;28;20045;-68
2022/11/19 08:28:30;;;;;;;20.45;12.63;;;;;;;2.47;100.00;101278.09;5021356;28;20429;-68
2022/11/19 08:30:56;;;;;;;23.33;14.13;;;;;;;2.47;100.00;101280.69;5025475;28;20080;-68
2022/11/19 08:33:23;;;;;;;21.73;13.35;;;;;;;2.45;100.00;101282.53;5009107;28;20100;-68
2022/11/19 08:35:53;;;;;;;23.50;13.93;;;;;;;2.48;100.00;101287.56;5012277;28;20060;-68
2022/11/19 08:38:20;;;;;;;22.98;13.32;;;;;;;2.47;100.00;101276.38;5025023;28;20049;-68
2022/11/19 08:40:51;;;;;;;21.20;12.45;;;;;;;2.50;100.00;101281.34;5027244;28;20638;-68
2022/11/19 08:43:18;;;;;;;20.13;12.18;;;;;;;2.46;100.00;101271.25;5021174;28;20057;-67
2022/11/19 08:45:52;;;;;;;22.67;13.18;;;;;;;2.53;100.00;101276.03;5017716;28;20528;-67
2022/11/19 08:48:19;;;;;;;21.48;13.15;;;;;;;2.50;100.00;101273.59;5020077;28;20049;-67
2022/11/19 08:50:45;;;;;;;18.98;12.75;;;;;;;2.47;100.00;101286.72;5016400;28;20096;-67
2022/11/19 08:53:12;;;;;;;20.63;12.75;;;;;;;2.42;100.00;101277.53;5012904;28;20057;-67
2022/11/19 08:55:39;;;;;;;23.58;13.45;;;;;;;2.31;100.00;101278.09;5018658;28;20050;-64
2022/11/19 08:58:06;;;;;;;21.25;13.25;;;;;;;2.27;100.00;101279.16;5018876;28;20049;-67
2022/11/19 09:00:35;;;;;;;23.10;12.20;;;;;;;2.25;100.00;101289.59;5025859;28;20045;-67
2022/11/19 09:03:01;;;;;;;;;;;;;;;2.24;100.00;101280.19;5003402;28;20100;-67
2022/11/19 09:05:28;;;;;;;22.02;12.98;;;;;;;2.12;100.00;101286.84;5009506;28;19929;-67
2022/11/19 09:07:54;;;;;;;21.33;13.27;;;;;;;2.09;100.00;101286.97;5008959;28;20061;-68
2022/11/19 09:10:20;;;;;;;20.92;12.05;;;;;;;2.07;100.00;101285.41;5035436;28;20049;-67
2022/11/19 09:12:48;;;;;;;21.27;12.73;;;;;;;2.04;100.00;101282.97;5017338;28;20490;-67
2022/11/19 09:15:14;;;;;;;22.52;13.55;;;;;;;2.05;100.00;101290.66;5024319;28;20046;-68
2022/11/19 09:17:41;;;;;;;21.60;14.02;;;;;;;2.07;100.00;101299.16;5014191;28;20045;-67
2022/11/19 09:20:12;;;;;;;21.13;12.60;;;;;;;2.04;100.00;101299.34;5021504;28;20057;-67
2022/11/19 09:22:39;;;;;;;20.40;10.95;;;;;;;2.07;100.00;101300.94;5014658;28;20046;-68
2022/11/19 09:25:07;;;;;;;20.15;12.15;;;;;;;2.04;100.00;101314.00;5009955;28;20096;-67
2022/11/19 09:27:35;;;;;;;21.27;12.52;;;;;;;1.98;100.00;101299.66;5014483;28;20553;-67
2022/11/19 09:30:03;;;;;;;18.13;11.52;;;;;;;2.00;100.00;101307.31;4999288;28;20097;-67
2022/11/19 09:32:30;;;;;;;17.45;11.48;;;;;;;1.97;100.00;101309.16;5004682;28;20054;-67
2022/11/19 09:34:56;;;;;;;18.27;11.25;;;;;;;1.96;100.00;101311.81;5019338;28;20049;-67
2022/11/19 09:37:22;;;;;;;18.30;10.95;;;;;;;1.96;100.00;101304.06;5006829;28;20049;-67
2022/11/19 09:39:49;;;;;;;17.00;10.68;;;;;;;1.92;99.92;101311.16;5018426;28;20052;-67
2022/11/19 09:42:24;;;;;;;19.65;11.25;;;;;;;1.98;100.00;101318.59;5000716;28;20120;-67
2022/11/19 09:45:16;;;;;;;20.70;12.27;;;;;;;2.01;100.00;101327.13;5008913;28;20053;-67
2022/11/19 09:48:06;;;;;;;19.15;11.07;;;;;;;2.05;100.00;101315.69;5013656;28;20472;-67
2022/11/19 09:50:49;;;;;;;17.27;11.32;;;;;;;2.02;99.99;101334.81;5024509;28;20054;-68
2022/11/19 09:53:21;;;;;;;16.13;10.60;;;;;;;2.11;100.00;101336.09;5019687;28;20107;-68
2022/11/19 09:55:50;;;;;;;21.13;10.55;;;;;;;2.12;100.00;101341.19;5029043;28;20563;-68
2022/11/19 09:58:41;;;;;;;18.23;11.18;;;;;;;2.19;100.00;101339.09;5015389;28;20049;-67
2022/11/19 10:01:16;;;;;;;15.70;10.18;;;;;;;2.22;100.00;101338.97;5026063;28;20045;-67
2022/11/19 10:03:47;;;;;;;17.27;10.32;;;;;;;2.24;100.00;101339.72;5019042;28;20057;-70
2022/11/19 10:06:13;;;;;;;16.33;10.55;;;;;;;2.23;100.00;101338.03;5018619;28;20049;-68
2022/11/19 10:08:58;;;;;;;16.77;10.38;;;;;;;2.27;100.00;101330.94;5024997;28;20050;-68
2022/11/19 10:11:38;;;;;;;16.20;9.70;;;;;;;2.32;100.00;101344.50;5014623;28;20105;-67
2022/11/19 10:14:19;;;;;;;17.27;9.98;;;;;;;2.32;97.87;101344.50;5018455;28;20567;-67
2022/11/19 10:17:04;;;;;;;16.63;9.93;;;;;;;2.44;98.48;101346.44;5017968;28;20045;-67
2022/11/19 10:19:39;;;;;;;17.92;10.63;;;;;;;2.41;95.92;101344.03;5020839;28;20056;-67
2022/11/19 10:22:16;;;;;;;14.85;9.25;;;;;;;2.41;94.00;101350.94;5021506;28;20120;-67
2022/11/19 10:25:13;;;;;;;17.05;9.98;;;;;;;2.36;94.87;101349.41;5020231;28;20127;-68
2022/11/19 10:27:47;;;;;;;15.52;10.10;;;;;;;2.40;94.29;101352.69;5005516;28;20055;-67
2022/11/19 10:30:16;;;;;;;14.90;9.95;;;;;;;2.41;94.11;101338.84;5023747;28;20099;-68
2022/11/19 10:32:53;;;;;;;14.75;9.45;;;;;;;2.47;95.32;101346.28;5019783;28;20081;-68
2022/11/19 10:35:31;;;;;;;15.50;9.27;;;;;;;2.45;93.76;101344.66;5014020;28;21131;-68
2022/11/19 10:38:00;;;;;;;15.68;9.95;;;;;;;2.56;92.36;101345.78;5024317;28;20103;-68
2022/11/19 10:40:42;;;;;;;15.65;9.57;;;;;;;2.60;89.20;101350.81;5015032;28;20064;-68
2022/11/19 10:43:27;;;;;;;16.27;10.35;;;;;;;2.60;89.65;101350.81;5029337;28;20049;-68
2022/11/19 10:45:57;;;;;;;13.52;8.85;;;;;;;2.61;90.04;101347.28;5019744;28;20051;-68
2022/11/19 10:48:31;;;;;;;16.42;9.65;;;;;;;2.62;90.19;101336.84;5020606;28;20445;-68
2022/11/19 10:50:58;;;;;;;16.30;8.63;;;;;;;2.64;89.13;101337.59;5019351;28;20481;-68
2022/11/19 10:53:31;;;;;;;15.02;8.57;;;;;;;2.66;88.38;101335.75;5008264;28;20059;-68
2022/11/19 10:56:01;;;;;;;13.50;8.90;;;;;;;2.80;90.53;101337.59;5022137;28;20049;-68
2022/11/19 10:58:53;;;;;;;16.67;10.00;;;;;;;2.84;88.08;101338.28;5020770;28;20064;-68
2022/11/19 11:01:32;;;;;;;17.65;9.48;;;;;;;2.86;87.67;101341.63;5006386;28;20050;-68
2022/11/19 11:04:20;;;;;;;16.42;9.68;;;;;;;2.87;87.02;101332.94;5013580;28;20046;-68
2022/11/19 11:06:57;;;;;;;14.63;9.20;;;;;;;2.97;86.39;101336.69;5020627;28;20072;-68
2022/11/19 11:09:38;;;;;;;13.55;8.98;;;;;;;3.09;86.19;101341.19;4995393;28;20057;-68
2022/11/19 11:15:17;;;;;;;15.73;9.82;;;;;;;3.28;84.41;101333.22;4997279;28;20045;-68
2022/11/19 11:17:45;;;;;;;15.55;8.60;;;;;;;3.32;83.73;101334.72;5020371;28;20054;-67
2022/11/19 11:20:14;;;;;;;14.88;9.27;;;;;;;3.42;84.21;101336.78;5005544;28;20896;-68
2022/11/19 11:22:44;;;;;;;13.73;9.00;;;;;;;3.46;81.88;101330.50;5016970;28;20041;-68
2022/11/19 11:25:23;;;;;;;14.75;8.90;;;;;;;3.60;83.28;101334.91;5018993;28;20045;-67
2022/11/19 11:28:03;;;;;;;12.63;8.55;;;;;;;3.75;83.37;101326.22;5019141;28;20056;-68
2022/11/19 11:30:29;;;;;;;15.25;9.00;;;;;;;3.79;80.26;101326.88;5022264;28;20045;-68
2022/11/19 11:32:56;;;;;;;12.98;8.75;;;;;;;3.91;80.51;101328.75;5010461;28;20436;-67
2022/11/19 11:35:31;;;;;;;12.30;8.40;;;;;;;3.96;79.85;101335.34;5023154;28;20049;-67
2022/11/19 11:37:59;;;;;;;15.32;9.05;;;;;;;4.12;81.60;101331.84;5011654;28;20042;-67
2022/11/19 11:40:27;;;;;;;13.50;8.77;;;;;;;4.17;81.92;101332.38;5022580;28;20045;-68
2022/11/19 11:42:54;;;;;;;11.63;8.23;;;;;;;4.24;77.25;101325.06;5022030;28;20465;-68
2022/11/19 11:45:32;;;;;;;12.70;8.27;;;;;;;4.21;76.70;101327.84;5026573;28;20049;-68
2022/11/19 11:48:14;;;;;;;15.50;9.63;;;;;;;4.26;75.85;101324.03;5026015;28;20053;-68